Latest Weather Observations for Scoresby

IDV60901

Issued at 7:31 am EST Monday 28 September 2020 (issued every 10 minutes, with the page automatically refreshed every 10 minutes)

About weather observations | Map of Melbourne area stations | Latest observations for Melbourne area | Other Formats
Station Details ID: 086104 Name: SCORESBY RESEARCH INSTITUTE Lat: -37.87 Lon: 145.26 Height: 80.0 m
Data from the previous 72 hours. | See also: Recent months at Scoresby
Date/Time
EST
Temp
°C
App
Temp
°C
Dew
Point
°C
Rel
Hum
%
Delta-T
°C
Wind Press
QNH
hPa
Press
MSL
hPa
Rain since
9am
mm
Dir  Spd
km/h
Gust
km/h
Spd
kts
Gust
kts
28/07:30am 6.7 5.5 4.4 85 1.0 CALM 0 0 0 0 - - 0.0
28/07:00am 5.6 4.2 3.8 88 0.8 CALM 0 0 0 0 - - 0.0
28/06:30am 5.0 3.6 3.5 90 0.6 CALM 0 2 0 1 - - 0.0
28/06:00am 4.8 3.4 3.3 90 0.6 CALM 0 0 0 0 - - 0.0
28/05:30am 4.6 3.2 3.3 91 0.5 CALM 0 0 0 0 - - 0.0
28/05:00am 4.3 2.0 3.0 91 0.5 NE 4 7 2 4 - - 0.0
28/04:30am 4.4 2.6 3.2 92 0.5 NE 2 7 1 4 - - 0.0
28/04:00am 4.3 2.9 3.6 95 0.3 CALM 0 0 0 0 - - 0.0
28/03:30am 3.9 2.5 3.5 97 0.2 CALM 0 0 0 0 - - 0.0
28/03:00am 3.3 1.8 2.9 97 0.2 CALM 0 0 0 0 - - 0.0
28/02:30am 2.9 1.3 2.5 97 0.2 CALM 0 0 0 0 - - 0.0
28/02:00am 3.0 1.4 2.6 97 0.2 CALM 0 0 0 0 - - 0.0
28/01:30am 3.3 1.8 2.9 97 0.2 CALM 0 0 0 0 - - 0.0
28/01:00am 3.2 1.7 2.8 97 0.2 CALM 0 0 0 0 - - 0.0
28/12:30am 3.2 1.7 2.8 97 0.2 CALM 0 0 0 0 - - 0.0
28/12:00am 3.1 1.5 2.5 96 0.2 CALM 0 0 0 0 - - 0.0
 
Date/Time
EST
Temp
°C
App
Temp
°C
Dew
Point
°C
Rel
Hum
%
Delta-T
°C
Wind Press
QNH
hPa
Press
MSL
hPa
Rain since
9am
mm
Dir  Spd
km/h
Gust
km/h
Spd
kts
Gust
kts
27/11:30pm 3.1 1.5 2.4 95 0.3 CALM 0 0 0 0 - - 0.0
27/11:00pm 3.5 2.0 2.8 95 0.3 CALM 0 0 0 0 - - 0.0
27/10:30pm 3.9 2.4 3.0 94 0.4 CALM 0 0 0 0 - - 0.0
27/10:00pm 4.2 2.7 3.2 93 0.4 CALM 0 0 0 0 - - 0.0
27/09:30pm 4.5 3.0 2.8 89 0.7 CALM 0 0 0 0 - - 0.0
27/09:00pm 5.4 4.0 3.3 86 0.9 CALM 0 0 0 0 - - 0.0
27/08:30pm 6.1 4.6 3.1 81 1.3 CALM 0 0 0 0 - - 0.0
27/08:00pm 6.6 5.1 3.0 78 1.5 CALM 0 0 0 0 - - 0.0
27/07:30pm 7.5 6.0 3.0 73 1.9 CALM 0 0 0 0 - - 0.0
27/07:00pm 8.9 6.2 2.7 65 2.6 SSE 6 9 3 5 - - 0.0
27/06:30pm 9.5 7.2 2.6 62 2.9 SSW 4 7 2 4 - - 0.0
27/06:00pm 10.5 7.6 2.8 59 3.3 SSW 7 13 4 7 - - 0.0
27/05:30pm 11.4 7.8 3.2 57 3.6 SW 11 19 6 10 - - 0.0
27/05:00pm 12.0 8.0 2.7 53 4.1 SW 13 20 7 11 - - 0.0
27/04:30pm 12.1 7.7 2.8 53 4.1 SSW 15 22 8 12 - - 0.0
27/04:00pm 13.0 8.8 3.7 53 4.2 SW 15 26 8 14 - - 0.0
27/03:30pm 12.4 8.4 3.1 53 4.1 SSW 13 24 7 13 - - 0.0
27/03:00pm 12.0 8.2 3.8 57 3.7 SSW 13 22 7 12 - - 0.0
27/02:30pm 12.4 8.9 3.4 54 4.0 SW 11 17 6 9 - - 0.0
27/02:00pm 13.2 10.3 4.4 55 4.0 SSW 9 19 5 10 - - 0.0
27/01:30pm 13.1 9.8 4.3 55 4.0 SW 11 20 6 11 - - 0.0
27/01:00pm 12.1 8.3 2.0 50 4.4 S 11 22 6 12 - - 0.0
27/12:30pm 11.9 7.9 2.9 54 4.0 SW 13 24 7 13 - - 0.0
27/12:00pm 11.9 8.3 2.9 54 4.0 SW 11 20 6 11 - - 0.0
27/11:30am 12.1 9.0 1.4 48 4.6 S 7 15 4 8 - - 0.0
27/11:00am 11.3 6.9 2.9 56 3.7 SW 15 22 8 12 - - 0.0
27/10:30am 11.3 8.6 3.6 59 3.4 S 7 13 4 7 - - 0.0
27/10:00am 10.9 7.6 2.7 57 3.6 SSW 9 22 5 12 - - 0.0
27/09:30am 11.0 8.1 4.7 65 2.9 SSW 9 17 5 9 - - 0.0
27/09:00am 10.4 8.0 7.1 80 1.6 S 9 17 5 9 - - 5.0
27/08:30am 9.8 8.1 7.6 86 1.1 SW 6 9 3 5 - - 5.0
27/08:00am 7.7 7.0 7.1 96 0.3 CALM 0 0 0 0 - - 5.0
27/07:30am 5.8 - - - - CALM 0 0 0 0 - - 5.0
27/07:00am 4.8 - - - - CALM 0 0 0 0 - - 5.0
27/06:30am 4.9 - - - - CALM 0 0 0 0 - - 5.0
27/06:00am 5.2 - - - - CALM 0 0 0 0 - - 5.0
27/05:30am 5.8 4.8 5.8 100 0.0 CALM 0 2 0 1 - - 5.0
27/05:00am 6.8 6.1 6.8 100 0.0 CALM 0 0 0 0 - - 5.0
27/04:30am 7.5 - - - - SSW 2 4 1 2 - - 5.0
27/04:00am 7.8 - - - - SW 2 6 1 3 - - 5.0
27/03:30am 8.1 - - - - SSW 4 9 2 5 - - 5.0
27/03:00am 8.4 - - - - WSW 2 6 1 3 - - 5.0
27/02:30am 8.5 - - - - WSW 6 7 3 4 - - 5.0
27/02:00am 8.5 - - - - SW 11 20 6 11 - - 5.0
27/01:30am 8.8 - - - - WSW 9 19 5 10 - - 3.8
27/01:00am 8.9 6.2 8.9 100 0.0 W 13 19 7 10 - - 3.4
27/12:30am 9.3 7.1 9.3 100 0.0 W 11 17 6 9 - - 3.0
27/12:00am 9.3 6.6 9.0 98 0.1 W 13 22 7 12 - - 3.0
 
Date/Time
EST
Temp
°C
App
Temp
°C
Dew
Point
°C
Rel
Hum
%
Delta-T
°C
Wind Press
QNH
hPa
Press
MSL
hPa
Rain since
9am
mm
Dir  Spd
km/h
Gust
km/h
Spd
kts
Gust
kts
26/11:30pm 9.2 6.9 8.9 98 0.1 W 11 22 6 12 - - 3.0
26/11:00pm 9.5 6.8 9.0 97 0.2 W 13 22 7 12 - - 3.0
26/10:30pm 9.6 6.6 9.1 97 0.2 W 15 24 8 13 - - 3.0
26/10:00pm 9.7 7.0 9.1 96 0.3 W 13 22 7 12 - - 3.0
26/09:30pm 9.6 7.3 9.0 96 0.3 W 11 17 6 9 - - 3.0
26/09:00pm 9.6 6.8 8.7 94 0.4 WNW 13 20 7 11 - - 3.0
26/08:30pm 9.5 7.2 8.9 96 0.3 WNW 11 20 6 11 - - 3.0
26/08:00pm 9.4 7.5 9.1 98 0.1 WNW 9 15 5 8 - - 3.0
26/07:30pm 9.1 7.2 9.0 99 0.0 W 9 17 5 9 - - 3.0
26/07:00pm 9.0 - - - - NNW 2 11 1 6 - - 3.0
26/06:30pm 9.0 8.8 9.0 100 0.0 CALM 0 4 0 2 - - 3.0
26/06:00pm 9.2 7.3 9.2 100 0.0 SW 9 17 5 9 - - 2.6
26/05:30pm 9.7 7.8 9.1 96 0.3 SW 9 15 5 8 - - 2.2
26/05:00pm 11.5 8.0 8.9 84 1.3 WSW 17 28 9 15 - - 2.2
26/04:30pm 12.5 8.4 7.8 73 2.3 W 19 32 10 17 - - 2.2
26/04:00pm 11.8 7.9 8.8 82 1.5 WSW 19 26 10 14 - - 2.2
26/03:30pm 12.3 9.8 8.4 77 1.9 W 11 24 6 13 - - 2.2
26/03:00pm 11.8 9.0 7.1 73 2.3 WSW 11 20 6 11 - - 2.2
26/02:30pm 12.4 8.2 5.6 63 3.2 WSW 17 24 9 13 - - 2.2
26/02:00pm 11.7 7.9 6.0 68 2.7 WSW 15 26 8 14 - - 2.2
26/01:30pm 11.9 8.1 5.8 66 2.9 WSW 15 32 8 17 - - 2.2
26/01:00pm 11.4 7.8 8.3 81 1.5 W 17 32 9 17 - - 2.2
26/12:30pm 9.5 7.6 7.6 88 0.9 WSW 7 15 4 8 - - 2.2
26/12:00pm 10.6 5.7 4.9 68 2.6 WSW 20 30 11 16 - - 1.2
26/11:30am 11.3 7.2 4.1 61 3.2 WSW 15 30 8 16 - - 1.2
26/11:00am 10.8 5.5 5.1 68 2.6 WSW 22 35 12 19 - - 1.2
26/10:30am 10.8 6.1 5.1 68 2.6 WSW 19 30 10 16 - - 1.2
26/10:00am 9.1 5.4 6.2 82 1.3 WSW 15 26 8 14 - - 1.2
26/09:30am 10.0 5.9 6.3 78 1.7 WSW 17 28 9 15 - - 0.0
26/09:00am 9.2 4.8 6.5 83 1.3 W 19 35 10 19 - - 20.6
26/08:30am 8.9 6.4 6.5 85 1.1 SSW 9 17 5 9 - - 20.4
26/08:00am 7.9 2.8 6.0 88 0.9 SSW 22 43 12 23 - - 20.4
26/07:30am 8.2 3.2 6.5 89 0.8 WSW 22 43 12 23 - - 20.0
26/07:00am 8.3 3.0 6.9 91 0.7 SW 24 44 13 24 - - 19.2
26/06:30am 8.5 3.9 6.6 88 0.9 SW 20 37 11 20 - - 17.6
26/06:00am 7.9 3.5 6.5 91 0.6 SSW 19 35 10 19 - - 16.8
26/05:30am 6.3 5.0 6.0 98 0.1 SE 2 7 1 4 - - 16.2
26/05:00am 6.1 4.7 5.7 97 0.2 NE 2 7 1 4 - - 14.0
26/04:30am 5.9 4.1 5.5 97 0.2 SSE 4 7 2 4 - - 13.2
26/04:00am 5.9 3.7 5.3 96 0.3 N 6 11 3 6 - - 10.0
26/03:30am 5.1 2.1 4.1 93 0.4 NE 9 15 5 8 - - 8.2
26/03:00am 5.2 2.5 3.9 91 0.5 NNE 7 13 4 7 - - 7.6
26/02:30am 5.7 3.2 3.5 86 0.9 N 6 11 3 6 - - 7.0
26/02:00am 5.8 3.2 3.0 82 1.2 N 6 11 3 6 - - 7.0
26/01:30am 5.6 2.8 2.9 83 1.1 NNW 7 11 4 6 - - 7.0
26/01:00am 5.4 3.1 2.9 84 1.0 N 4 9 2 5 - - 7.0
26/12:30am 5.1 2.9 3.1 87 0.8 N 4 9 2 5 - - 7.0
26/12:00am 4.2 1.5 2.9 91 0.5 NE 6 9 3 5 - - 7.0
 
Date/Time
EST
Temp
°C
App
Temp
°C
Dew
Point
°C
Rel
Hum
%
Delta-T
°C
Wind Press
QNH
hPa
Press
MSL
hPa
Rain since
9am
mm
Dir  Spd
km/h
Gust
km/h
Spd
kts
Gust
kts
25/11:30pm 4.8 2.5 3.0 88 0.7 NNE 4 6 2 3 - - 7.0
25/11:00pm 5.5 3.0 3.5 87 0.8 N 6 11 3 6 - - 7.0
25/10:30pm 5.3 3.5 3.3 87 0.8 NNW 2 6 1 3 - - 7.0
25/10:00pm 5.4 3.8 4.5 94 0.4 NW 2 7 1 4 - - 7.0
25/09:30pm 5.6 4.1 4.9 95 0.3 NE 2 7 1 4 - - 7.0
25/09:00pm 6.1 4.3 5.5 96 0.3 NE 4 9 2 5 - - 7.0
25/08:30pm 5.7 3.8 5.0 95 0.3 NNE 4 7 2 4 - - 7.0
25/08:00pm 6.0 3.8 5.1 94 0.4 NE 6 7 3 4 - - 7.0
25/07:30pm 6.3 4.4 5.1 92 0.5 NNE 4 9 2 5 - - 7.0
25/07:00pm 6.2 3.7 5.0 92 0.5 NNE 7 9 4 5 - - 6.8
25/06:30pm 6.0 4.0 4.6 91 0.6 NNE 4 6 2 3 - - 6.8
25/06:00pm 5.8 3.8 4.6 92 0.5 NNE 4 7 2 4 - - 6.8
25/05:30pm 5.7 3.6 4.0 89 0.7 NNE 4 7 2 4 - - 6.8
25/05:00pm 5.8 1.3 4.3 90 0.6 WSW 17 32 9 17 - - 5.6
25/04:30pm 6.2 2.2 4.8 91 0.6 W 15 26 8 14 - - 2.6
25/04:00pm 6.4 1.9 4.1 85 1.0 W 17 28 9 15 - - 2.6
25/03:30pm 7.1 2.6 4.1 81 1.3 W 17 32 9 17 - - 2.6
25/03:00pm 8.4 3.4 4.6 77 1.7 W 20 39 11 21 - - 2.6
25/02:30pm 8.5 3.2 4.9 78 1.6 WSW 22 32 12 17 - - 2.6
25/02:00pm 10.3 6.1 5.7 73 2.1 WSW 17 26 9 14 - - 2.6
25/01:30pm 10.0 5.4 5.6 74 2.0 WSW 19 26 10 14 - - 2.6
25/01:00pm 10.5 6.2 3.1 60 3.2 WNW 15 26 8 14 - - 2.6
25/12:30pm 10.1 7.6 4.9 70 2.4 NW 7 15 4 8 - - 2.6
25/12:00pm 9.3 7.0 5.7 78 1.6 N 7 13 4 7 - - 2.6
25/11:30am 8.6 7.0 6.4 86 1.0 NNE 4 7 2 4 - - 2.6
25/11:00am 8.3 6.2 5.9 85 1.1 N 6 13 3 7 - - 2.6
25/10:30am 8.2 6.3 6.8 91 0.7 N 6 9 3 5 - - 2.6
25/10:00am 7.1 5.8 6.0 93 0.5 N 2 6 1 3 - - 2.2
25/09:30am 6.9 4.8 5.7 92 0.5 NW 6 11 3 6 - - 1.6
25/09:00am 8.6 6.0 5.9 83 1.2 N 9 19 5 10 - - 6.0
25/08:30am 7.9 4.8 5.7 86 1.0 NNE 11 17 6 9 - - 6.0
25/08:00am 7.4 4.3 5.7 89 0.8 NNE 11 20 6 11 - - 6.0

Latest Capital City Observations: Canberra | Sydney | Melbourne | Brisbane | Adelaide | Perth | Hobart | Darwin

Other formats

Comma delimited format used in spreadsheet applications
http://www.bom.gov.au/fwo/IDV60901/IDV60901.95867.axf

JavaScript Object Notation format (JSON) in row-major order
http://www.bom.gov.au/fwo/IDV60901/IDV60901.95867.json

Data quality

Most of these data are generated automatically and are frequently updated. Quality checks on data are not normally performed. It is possible for incorrect values to appear. Refer to information at About Latest Weather Observations and please check the disclaimer before using these data.